Tropical Cyclones
[Index]
Main Index Home Page Stock Weather Photos Extreme Storms Discussion Storm News and Storm Chasing Reports Tropical Cyclones / Hurricanes / Typhoons Weather Data and Links Wild Fires / Bushfires Weather Observation Techniques Weather Picture Catalogue Tornado Pictures and Reports Stock Video Footage and DVDs for sale
Season 1988-1989 Tropical Cyclone FIRINGA Track Map
Season 1988-1989 Summaries: [BoM-AU] [JTWC-AU] [JTWC-SIO] [JTWC-SPAC] [JTWC-SH]
<<- Previous TC | JTWC 1988-1989 Season | Next TC ->>

click for intensity scale information  Lat/long Grid: Show Hide

 Date Labels: Show Hide

Joint Typhoon Warning Centre Cyclone Data

Name: FIRINGA

24 Jan 1989 06:00 UTC to 01 Feb 1989 06:00 UTC

    date/time    lat    long     hPa   cat  kts
1989-01-24 06   11.0    64.0                  25          
1989-01-24 12   11.1    64.4                  25          
1989-01-24 18   11.2    64.8                  25          
1989-01-25 00   11.4    65.0                  25          
1989-01-25 06   11.6    65.3                  30          
1989-01-25 12   12.0    65.6                  30          
1989-01-25 18   12.4    65.9                  35          
1989-01-26 00   12.8    66.2                  35          
1989-01-26 06   13.4    66.1                  35          
1989-01-26 12   14.2    65.8            1     40          
1989-01-26 18   14.7    65.3            1     45          
1989-01-27 00   15.3    64.8            1     45          
1989-01-27 06   15.9    64.1            1     50          
1989-01-27 12   16.5    63.2            2     55          
1989-01-27 18   17.1    62.2            2     60          
1989-01-28 00   17.8    61.2            2     65          
1989-01-28 06   18.3    60.0            2     70          
1989-01-28 12   19.0    58.9            3     80          
1989-01-28 18   19.6    57.6            3     90          
1989-01-29 00   20.1    56.7            3     90          
1989-01-29 06   20.7    55.8            3     90          
1989-01-29 12   21.2    55.1            3     90          
1989-01-29 18   21.8    54.3            3     85          
1989-01-30 00   22.3    53.8            3     75          
1989-01-30 06   23.0    53.0            2     65          
1989-01-30 12   23.7    52.3            2     55          
1989-01-30 18   24.4    51.7            1     45          
1989-01-31 00   25.2    51.0            1     45          
1989-01-31 06   26.1    50.6            1     45          
1989-01-31 12   27.2    50.4            1     40          
1989-01-31 18   28.3    50.3                  35          
1989-02-01 00   29.4    50.5                  35          
1989-02-01 06   30.5    51.0                  30          
Winds are 1-min average.

Tropical cyclone tracks developed by Michael Bath using data from the Joint Typhoon Warning Centre Best Tracks and Google Maps.


[Australian Severe Weather index] [Copyright Notice] [Email Contacts] [Search This Site] [Privacy Policy]
Document: tropical_cyclone_firinga.htm Updated: 18 September 2016